createdAt,value
2018-12-12T00:00:45.619Z,95010.19
2018-12-12T00:03:13.923Z,95008.67
2018-12-12T00:05:42.243Z,95004.38
2018-12-12T00:08:10.769Z,95013.97
2018-12-12T00:10:39.106Z,95013.29
2018-12-12T00:13:07.488Z,95019.78
2018-12-12T00:15:35.746Z,95027.55
2018-12-12T00:18:04.574Z,95020.15
2018-12-12T00:20:32.804Z,95026.93
2018-12-12T00:23:01.200Z,95024.20
2018-12-12T00:25:29.809Z,95022.22
2018-12-12T00:27:58.222Z,95025.13
2018-12-12T00:30:26.534Z,95030.88
2018-12-12T00:32:55.009Z,95030.02
2018-12-12T00:35:23.506Z,95035.88
2018-12-12T00:37:51.944Z,95032.19
2018-12-12T00:40:20.266Z,95034.33
2018-12-12T00:42:48.782Z,95039.77
2018-12-12T00:45:17.187Z,95040.04
2018-12-12T00:47:45.873Z,95039.84
2018-12-12T00:50:14.195Z,95034.97
2018-12-12T00:52:42.566Z,95037.88
2018-12-12T00:55:10.903Z,95045.02
2018-12-12T00:57:39.189Z,95036.60
2018-12-12T01:00:08.557Z,95036.90
2018-12-12T01:02:37.003Z,95037.31
2018-12-12T01:05:05.547Z,95035.66
2018-12-12T01:07:34.137Z,95040.92
2018-12-12T01:10:02.545Z,95043.58
2018-12-12T01:12:30.911Z,95042.52
2018-12-12T01:14:59.302Z,95048.81
2018-12-12T01:17:27.839Z,95045.95
2018-12-12T01:19:56.230Z,95040.48
2018-12-12T01:22:24.721Z,95040.95
2018-12-12T01:24:52.966Z,95036.83
2018-12-12T01:27:21.289Z,95028.83
2018-12-12T01:29:49.820Z,95033.33
2018-12-12T01:32:18.095Z,95039.77
2018-12-12T01:34:46.530Z,95023.95
2018-12-12T01:37:15.086Z,95044.86
2018-12-12T01:39:43.665Z,95033.70
2018-12-12T01:42:12.044Z,95038.41
2018-12-12T01:44:40.700Z,95033.47
2018-12-12T01:47:09.113Z,95042.99
2018-12-12T01:49:37.495Z,95043.87
2018-12-12T01:52:05.928Z,95037.24
2018-12-12T01:54:34.374Z,95041.64
2018-12-12T01:57:03.206Z,95030.66
2018-12-12T01:59:31.647Z,95037.73
2018-12-12T02:02:00.170Z,95032.62
2018-12-12T02:04:28.524Z,95037.47
2018-12-12T02:06:56.920Z,95037.58
2018-12-12T02:09:25.343Z,95042.81
2018-12-12T02:11:53.753Z,95038.89
2018-12-12T02:14:22.186Z,95038.75
2018-12-12T02:16:50.670Z,95041.22
2018-12-12T02:19:19.314Z,95031.40
2018-12-12T02:21:47.693Z,95041.05
2018-12-12T02:24:16.088Z,95049.06
2018-12-12T02:26:44.633Z,95051.25
2018-12-12T02:29:13.037Z,95045.66
2018-12-12T02:31:41.506Z,95043.95
2018-12-12T02:34:09.957Z,95047.20
2018-12-12T02:36:38.690Z,95042.61
2018-12-12T02:39:08.592Z,95039.43
2018-12-12T02:41:37.058Z,95035.12
2018-12-12T02:44:05.303Z,95034.23
2018-12-12T02:46:33.600Z,95030.61
2018-12-12T02:49:02.096Z,95029.41
2018-12-12T02:51:30.698Z,95025.23
2018-12-12T02:53:59.229Z,95025.66
2018-12-12T02:56:27.549Z,95023.26
2018-12-12T02:58:56.124Z,95025.23
2018-12-12T03:01:24.420Z,95017.16
2018-12-12T03:03:53.094Z,95014.17
2018-12-12T03:06:21.535Z,95019.55
2018-12-12T03:08:49.750Z,95025.06
2018-12-12T03:11:23.973Z,95019.30
2018-12-12T03:13:53.135Z,95025.37
2018-12-12T03:16:22.092Z,95020.81
2018-12-12T03:18:50.615Z,95020.84
2018-12-12T03:21:19.307Z,95019.52
2018-12-12T03:23:48.050Z,95024.74
2018-12-12T03:26:16.734Z,95015.13
2018-12-12T03:28:45.229Z,95013.28
2018-12-12T03:31:13.801Z,95015.56
2018-12-12T03:33:42.130Z,95017.48
2018-12-12T03:36:10.520Z,95013.20
2018-12-12T03:38:38.949Z,95027.56
2018-12-12T03:41:07.419Z,95018.19
2018-12-12T03:43:35.780Z,95020.73
2018-12-12T03:46:04.119Z,95024.45
2018-12-12T03:48:32.566Z,95014.14
2018-12-12T03:51:01.255Z,95026.04
2018-12-12T03:53:29.797Z,95034.98
2018-12-12T03:55:58.324Z,95042.09
2018-12-12T03:58:26.858Z,95035.28
2018-12-12T04:00:55.241Z,95040.97
2018-12-12T04:03:24.492Z,95036.67
2018-12-12T04:05:52.913Z,95040.84
2018-12-12T04:08:21.442Z,95048.94
2018-12-12T04:10:49.910Z,95042.94
2018-12-12T04:13:18.558Z,95045.88
2018-12-12T04:15:47.110Z,95050.13
2018-12-12T04:18:15.682Z,95052.13
2018-12-12T04:20:44.280Z,95050.48
2018-12-12T04:23:12.757Z,95058.58
2018-12-12T04:25:41.649Z,95053.24
2018-12-12T04:28:10.346Z,95050.30
2018-12-12T04:30:39.129Z,95054.62
2018-12-12T04:33:07.496Z,95054.73
2018-12-12T04:35:35.934Z,95059.14
2018-12-12T04:38:04.414Z,95054.80
2018-12-12T04:40:32.803Z,95066.25
2018-12-12T04:43:01.150Z,95061.70
2018-12-12T04:45:29.408Z,95060.55
2018-12-12T04:47:57.860Z,95066.84
2018-12-12T04:50:26.467Z,95069.66
2018-12-12T04:52:54.926Z,95069.33
2018-12-12T04:55:23.614Z,95068.53
2018-12-12T04:57:52.242Z,95078.63
2018-12-12T05:00:20.750Z,95079.41
2018-12-12T05:02:50.163Z,95080.55
2018-12-12T05:05:19.132Z,95083.58
2018-12-12T05:07:47.834Z,95082.63
2018-12-12T05:10:16.595Z,95083.98
2018-12-12T05:12:45.259Z,95092.34
2018-12-12T05:15:13.794Z,95091.19
2018-12-12T05:17:42.429Z,95087.34
2018-12-12T05:20:10.858Z,95090.54
2018-12-12T05:22:39.499Z,95083.95
2018-12-12T05:25:08.040Z,95095.09
2018-12-12T05:27:36.740Z,95084.80
2018-12-12T05:30:05.941Z,95095.81
2018-12-12T05:32:34.425Z,95106.22
2018-12-12T05:35:03.000Z,95102.28
2018-12-12T05:37:31.394Z,95105.67
2018-12-12T05:40:04.943Z,95104.00
2018-12-12T05:42:33.854Z,95102.67
2018-12-12T05:45:02.197Z,95111.34
2018-12-12T05:47:30.695Z,95109.19
2018-12-12T05:49:59.246Z,95098.62
2018-12-12T05:52:27.718Z,95113.75
2018-12-12T05:54:56.413Z,95111.20
2018-12-12T05:57:25.102Z,95116.19
2018-12-12T05:59:53.781Z,95115.07
2018-12-12T06:02:22.276Z,95115.91
2018-12-12T06:04:50.666Z,95114.36
2018-12-12T06:07:19.253Z,95114.42
2018-12-12T06:09:47.623Z,95126.70
2018-12-12T06:12:16.661Z,95126.48
2018-12-12T06:14:45.143Z,95131.48
2018-12-12T06:17:13.802Z,95132.70
2018-12-12T06:19:43.435Z,95121.70
2018-12-12T06:22:11.970Z,95128.83
2018-12-12T06:24:40.683Z,95133.03
2018-12-12T06:27:09.044Z,95139.11
2018-12-12T06:29:37.721Z,95138.03
2018-12-12T06:32:06.373Z,95137.66
2018-12-12T06:34:35.061Z,95137.70
2018-12-12T06:37:03.695Z,95139.94
2018-12-12T06:39:32.104Z,95144.93
2018-12-12T06:42:00.973Z,95144.50
2018-12-12T06:44:29.414Z,95150.52
2018-12-12T06:46:57.926Z,95150.36
2018-12-12T06:49:28.676Z,95148.47
2018-12-12T06:51:57.121Z,95148.95
2018-12-12T06:54:25.791Z,95147.71
2018-12-12T06:56:55.206Z,95149.16
2018-12-12T06:59:24.189Z,95149.89
2018-12-12T07:01:52.739Z,95152.31
2018-12-12T07:04:21.116Z,95154.39
2018-12-12T07:06:49.476Z,95159.53
2018-12-12T07:09:18.213Z,95158.58
2018-12-12T07:11:46.727Z,95158.75
2018-12-12T07:14:15.266Z,95158.73
2018-12-12T07:16:47.065Z,95159.94
2018-12-12T07:19:15.457Z,95174.89
2018-12-12T07:21:43.979Z,95170.87
2018-12-12T07:24:12.392Z,95174.78
2018-12-12T07:26:40.937Z,95170.95
2018-12-12T07:29:09.701Z,95169.44
2018-12-12T07:31:38.239Z,95181.08
2018-12-12T07:34:06.831Z,95174.45
2018-12-12T07:36:35.491Z,95176.05
2018-12-12T07:39:06.680Z,95184.73
2018-12-12T07:41:35.423Z,95184.90
2018-12-12T07:44:04.188Z,95187.03
2018-12-12T07:46:32.820Z,95192.76
2018-12-12T07:49:01.938Z,95193.41
2018-12-12T07:51:30.681Z,95190.81
2018-12-12T07:53:59.014Z,95202.17
2018-12-12T07:56:27.464Z,95195.75
2018-12-12T07:58:55.798Z,95194.25
2018-12-12T08:01:24.337Z,95201.05
2018-12-12T08:03:52.765Z,95202.70
2018-12-12T08:06:21.480Z,95205.72
2018-12-12T08:08:49.917Z,95211.95
2018-12-12T08:11:18.415Z,95207.71
2018-12-12T08:13:47.150Z,95210.59
2018-12-12T08:16:15.639Z,95210.20
2018-12-12T08:18:59.406Z,95202.32
2018-12-12T08:21:29.939Z,95214.19
2018-12-12T08:23:58.780Z,95216.39
2018-12-12T08:26:27.608Z,95209.98
2018-12-12T08:28:56.415Z,95212.38
2018-12-12T08:31:26.065Z,95217.44
2018-12-12T08:33:54.729Z,95221.70
2018-12-12T08:36:23.240Z,95215.82
2018-12-12T08:39:00.380Z,95227.19
2018-12-12T08:41:32.482Z,95220.41
2018-12-12T08:44:01.003Z,95233.09
2018-12-12T08:46:30.868Z,95225.15
2018-12-12T08:48:59.346Z,95221.93
2018-12-12T08:51:27.865Z,95235.59
2018-12-12T08:53:56.411Z,95232.78
2018-12-12T08:56:24.995Z,95234.52
2018-12-12T08:58:53.994Z,95236.45
2018-12-12T09:01:22.611Z,95243.38
2018-12-12T09:04:07.478Z,95236.86
2018-12-12T09:06:36.294Z,95236.66
2018-12-12T09:09:07.272Z,95228.53
2018-12-12T09:11:35.827Z,95227.56
2018-12-12T09:14:04.222Z,95225.77
2018-12-12T09:16:32.894Z,95088.28
2018-12-12T09:19:01.434Z,95231.49
2018-12-12T09:21:30.938Z,95228.06
2018-12-12T09:23:59.557Z,95225.68
2018-12-12T09:26:28.147Z,95207.92
2018-12-12T09:28:56.514Z,95210.80
2018-12-12T09:31:25.073Z,95216.95
2018-12-12T09:33:53.548Z,95204.94
2018-12-12T09:36:22.260Z,95219.16
2018-12-12T09:38:50.798Z,95195.75
2018-12-12T09:41:19.105Z,95211.77
2018-12-12T09:43:47.608Z,95204.73
2018-12-12T09:46:16.486Z,95198.59
2018-12-12T09:48:45.260Z,95200.06
2018-12-12T09:51:13.751Z,95204.05
2018-12-12T09:53:42.216Z,95195.30
2018-12-12T09:56:10.992Z,95188.72
2018-12-12T09:58:39.860Z,95184.90
2018-12-12T10:01:08.315Z,95180.80
2018-12-12T10:03:36.925Z,95184.09
2018-12-12T10:06:05.678Z,95187.59
2018-12-12T10:08:33.977Z,95172.62
2018-12-12T10:11:03.605Z,95181.03
2018-12-12T10:13:32.385Z,95173.92
2018-12-12T10:16:00.852Z,95171.69
2018-12-12T10:18:29.368Z,95167.95
2018-12-12T10:20:57.961Z,95167.52
2018-12-12T10:23:26.305Z,95166.20
2018-12-12T10:25:54.745Z,95165.55
2018-12-12T10:28:23.189Z,95173.18
2018-12-12T10:30:51.487Z,95160.02
2018-12-12T10:33:19.953Z,95152.91
2018-12-12T10:35:48.913Z,95169.86
2018-12-12T10:38:17.447Z,95162.09
2018-12-12T10:40:45.953Z,95161.05
2018-12-12T10:43:14.619Z,95166.09
2018-12-12T10:45:43.277Z,95166.13
2018-12-12T10:48:12.313Z,95158.57
2018-12-12T10:50:41.633Z,95158.89
2018-12-12T10:53:10.382Z,95153.48
2018-12-12T10:55:38.809Z,95149.22
2018-12-12T10:58:07.400Z,95159.38
2018-12-12T11:00:39.936Z,95160.67
2018-12-12T11:03:14.273Z,95157.10
2018-12-12T11:05:42.546Z,95163.77
2018-12-12T11:08:11.117Z,95153.34
2018-12-12T11:10:39.905Z,95161.66
2018-12-12T11:13:08.673Z,95164.67
2018-12-12T11:15:37.146Z,95157.81
2018-12-12T11:18:05.560Z,95159.52
2018-12-12T11:20:34.017Z,95162.50
2018-12-12T11:23:03.256Z,95155.52
2018-12-12T11:25:31.602Z,95154.28
2018-12-12T11:27:59.962Z,95154.67
2018-12-12T11:30:28.367Z,95149.61
2018-12-12T11:32:56.737Z,95147.17
2018-12-12T11:35:25.250Z,95149.09
2018-12-12T11:37:53.487Z,95144.73
2018-12-12T11:40:22.046Z,95137.20
2018-12-12T11:42:50.756Z,95137.09
2018-12-12T11:45:19.201Z,95136.19
2018-12-12T11:47:47.870Z,95141.64
2018-12-12T11:50:16.375Z,95147.84
2018-12-12T11:52:44.676Z,95142.27
2018-12-12T11:55:13.115Z,95147.75
2018-12-12T11:57:41.951Z,94964.95
2018-12-12T12:00:10.519Z,95137.84
2018-12-12T12:02:39.110Z,95143.31
2018-12-12T12:05:07.854Z,95129.80
2018-12-12T12:07:36.281Z,95132.00
2018-12-12T12:10:05.708Z,95141.55
2018-12-12T12:12:34.092Z,95138.63
2018-12-12T12:15:02.354Z,95131.80
2018-12-12T12:17:30.607Z,95124.91
2018-12-12T12:19:59.099Z,95138.63
2018-12-12T12:22:27.674Z,95136.17
2018-12-12T12:24:56.046Z,95142.31
2018-12-12T12:27:24.717Z,95143.88
2018-12-12T12:29:53.499Z,95141.70
2018-12-12T12:32:22.589Z,95150.50
2018-12-12T12:34:50.954Z,95151.78
2018-12-12T12:37:19.387Z,95147.27
2018-12-12T12:39:53.464Z,95150.09
2018-12-12T12:45:14.654Z,95158.41
2018-12-12T12:47:51.254Z,95162.07
2018-12-12T12:50:45.901Z,95159.53
2018-12-12T12:53:14.616Z,95165.19
2018-12-12T12:55:43.037Z,95158.70
2018-12-12T12:58:11.740Z,95165.08
2018-12-12T13:00:40.103Z,95165.97
2018-12-12T13:03:08.536Z,95169.05
2018-12-12T13:05:36.914Z,95173.44
2018-12-12T13:08:05.342Z,95172.22
2018-12-12T13:10:34.110Z,95182.18
2018-12-12T13:13:02.806Z,95176.81
2018-12-12T13:15:31.600Z,95188.48
2018-12-12T13:18:00.556Z,95185.58
2018-12-12T13:20:29.060Z,95189.03
2018-12-12T13:22:57.417Z,95186.84
2018-12-12T13:25:26.177Z,95179.31
2018-12-12T13:27:54.639Z,95182.33
2018-12-12T13:30:23.295Z,95190.66
2018-12-12T13:32:51.816Z,95191.59
2018-12-12T13:35:20.230Z,95197.52
2018-12-12T13:37:48.844Z,95197.20
2018-12-12T13:40:17.250Z,95197.03
2018-12-12T13:42:45.553Z,95205.31
2018-12-12T13:45:14.068Z,95197.84
2018-12-12T13:47:43.112Z,95206.89
2018-12-12T13:50:11.730Z,95201.42
2018-12-12T13:52:40.260Z,95213.48
2018-12-12T13:55:08.673Z,95214.94
2018-12-12T13:57:37.122Z,95215.91
2018-12-12T14:00:06.268Z,95218.00
2018-12-12T14:02:34.615Z,95219.52
2018-12-12T14:05:03.043Z,95222.82
2018-12-12T14:07:31.366Z,95224.01
2018-12-12T14:10:03.191Z,95214.64
2018-12-12T14:12:31.923Z,95226.25
2018-12-12T14:15:00.316Z,95223.56
2018-12-12T14:17:30.024Z,95224.86
2018-12-12T14:19:58.663Z,95222.71
2018-12-12T14:22:27.068Z,95231.61
2018-12-12T14:24:55.364Z,95228.64
2018-12-12T14:27:23.824Z,95233.44
2018-12-12T14:29:52.412Z,95232.86
2018-12-12T14:32:21.543Z,95230.60
2018-12-12T14:34:49.873Z,95234.02
2018-12-12T14:37:18.314Z,95236.92
2018-12-12T14:39:46.703Z,95233.70
2018-12-12T14:42:15.162Z,95225.33
2018-12-12T14:44:43.574Z,95222.06
2018-12-12T14:47:11.878Z,95228.02
2018-12-12T14:49:40.345Z,95226.84
2018-12-12T14:52:08.594Z,95238.16
2018-12-12T14:54:36.750Z,95236.95
2018-12-12T14:57:05.565Z,95238.16
2018-12-12T14:59:33.982Z,95237.41
2018-12-12T15:02:02.499Z,95235.80
2018-12-12T15:04:35.911Z,95243.13
2018-12-12T15:07:02.404Z,95245.45
2018-12-12T15:09:30.781Z,95197.91
2018-12-12T15:11:59.647Z,95243.50
2018-12-12T15:14:28.236Z,95241.55
2018-12-12T15:16:57.113Z,95234.92
2018-12-12T15:19:26.066Z,95238.41
2018-12-12T15:21:55.088Z,95239.55
2018-12-12T15:24:23.471Z,95220.48
2018-12-12T15:26:51.821Z,95236.37
2018-12-12T15:29:20.504Z,95234.77
2018-12-12T15:31:48.788Z,95246.52
2018-12-12T15:34:17.190Z,95249.84
2018-12-12T15:36:45.678Z,95254.76
2018-12-12T15:39:14.185Z,95246.72
2018-12-12T15:41:42.562Z,95245.34
2018-12-12T15:44:11.010Z,95249.20
2018-12-12T15:46:39.657Z,95246.52
2018-12-12T15:49:08.236Z,95245.58
2018-12-12T15:51:36.948Z,95251.27
2018-12-12T15:54:05.875Z,95245.04
2018-12-12T15:56:35.929Z,95255.93
2018-12-12T15:59:05.180Z,95253.78
2018-12-12T16:01:37.308Z,95247.23
2018-12-12T16:04:06.288Z,95247.59
2018-12-12T16:06:36.881Z,95247.89
2018-12-12T16:09:10.882Z,95240.45
2018-12-12T16:11:39.315Z,95247.88
2018-12-12T16:14:07.850Z,95250.34
2018-12-12T16:16:36.482Z,95244.91
2018-12-12T16:19:05.192Z,95238.98
2018-12-12T16:21:33.578Z,95248.36
2018-12-12T16:24:02.100Z,95251.00
2018-12-12T16:26:30.509Z,95249.06
2018-12-12T16:29:00.686Z,95247.45
2018-12-12T16:31:29.643Z,95254.41
2018-12-12T16:33:57.879Z,95248.73
2018-12-12T16:36:26.645Z,95250.67
2018-12-12T16:38:55.849Z,95256.40
2018-12-12T16:41:24.340Z,95256.17
2018-12-12T16:43:53.617Z,95256.81
2018-12-12T16:46:22.923Z,95252.16
2018-12-12T16:48:51.938Z,95247.73
2018-12-12T16:51:20.805Z,95246.41
2018-12-12T16:53:49.399Z,95248.94
2018-12-12T16:56:18.083Z,95263.09
2018-12-12T16:58:46.402Z,95257.98
2018-12-12T17:01:14.924Z,95260.66
2018-12-12T17:03:43.461Z,95255.51
2018-12-12T17:06:11.993Z,95262.47
2018-12-12T17:08:41.686Z,95255.83
2018-12-12T17:11:10.253Z,95264.19
2018-12-12T17:13:40.138Z,95269.95
2018-12-12T17:16:08.655Z,95274.03
2018-12-12T17:18:38.088Z,95274.03
2018-12-12T17:21:06.775Z,95279.38
2018-12-12T17:23:35.437Z,95282.45
2018-12-12T17:26:04.097Z,95284.90
2018-12-12T17:28:32.552Z,95279.16
2018-12-12T17:31:01.067Z,95283.66
2018-12-12T17:50:22.545Z,95287.18
2018-12-12T17:52:51.192Z,95293.03
2018-12-12T17:55:20.691Z,95287.43
2018-12-12T17:57:49.645Z,95288.84
2018-12-12T18:00:18.463Z,95283.11
2018-12-12T18:02:47.603Z,95273.41
2018-12-12T18:05:16.402Z,95283.88
2018-12-12T18:07:44.962Z,95275.63
2018-12-12T18:10:13.349Z,95281.47
2018-12-12T18:12:43.588Z,95274.30
2018-12-12T18:15:12.275Z,95274.77
2018-12-12T18:17:42.679Z,95218.17
2018-12-12T18:20:14.099Z,95285.77
2018-12-12T18:22:44.977Z,95287.73
2018-12-12T18:25:14.297Z,95288.14
2018-12-12T18:27:43.970Z,95292.63
2018-12-12T18:30:13.638Z,95297.59
2018-12-12T18:32:42.192Z,95304.42
2018-12-12T18:35:12.294Z,95308.62
2018-12-12T18:37:42.494Z,95302.58
2018-12-12T18:40:11.074Z,95312.30
2018-12-12T18:42:42.256Z,95309.14
2018-12-12T18:45:12.633Z,95315.27
2018-12-12T18:47:43.355Z,95309.91
2018-12-12T18:50:12.863Z,95314.97
2018-12-12T18:52:43.356Z,95320.59
2018-12-12T18:55:12.403Z,95321.45
2018-12-12T18:57:41.508Z,95320.88
2018-12-12T19:00:10.732Z,95320.75
2018-12-12T19:02:40.408Z,95323.63
2018-12-12T19:05:09.173Z,95325.36
2018-12-12T19:07:37.671Z,95320.40
2018-12-12T19:10:06.852Z,95327.11
2018-12-12T19:12:35.356Z,95325.95
2018-12-12T19:15:05.410Z,95325.22
2018-12-12T19:17:33.960Z,95339.72
2018-12-12T19:20:02.458Z,95329.36
2018-12-12T19:22:30.924Z,95331.30
2018-12-12T19:24:59.365Z,95327.29
2018-12-12T19:27:27.689Z,95335.33
2018-12-12T19:29:56.181Z,95334.98
2018-12-12T19:32:24.564Z,95329.28
2018-12-12T19:34:52.838Z,95328.48
2018-12-12T19:37:21.249Z,95328.61
2018-12-12T19:39:49.793Z,95331.23
2018-12-12T19:42:18.204Z,95330.29
2018-12-12T19:44:46.600Z,95327.14
2018-12-12T19:47:16.019Z,95329.95
2018-12-12T19:49:45.201Z,95333.27
2018-12-12T19:52:13.583Z,95325.49
2018-12-12T19:54:42.213Z,95322.74
2018-12-12T19:57:11.123Z,95325.98
2018-12-12T19:59:39.969Z,95321.53
2018-12-12T20:02:08.519Z,95324.52
2018-12-12T20:04:37.581Z,95324.03
2018-12-12T20:07:06.162Z,95321.45
2018-12-12T20:09:35.764Z,95325.45
2018-12-12T20:12:04.443Z,95324.47
2018-12-12T20:14:33.151Z,95329.59
2018-12-12T20:17:01.491Z,95327.35
2018-12-12T20:19:30.162Z,95324.62
2018-12-12T20:21:58.582Z,95319.94
2018-12-12T20:24:27.003Z,95316.39
2018-12-12T20:26:55.383Z,95327.52
2018-12-12T20:29:23.748Z,95323.33
2018-12-12T20:31:53.620Z,95322.27
2018-12-12T20:34:21.840Z,95320.38
2018-12-12T20:36:50.115Z,95325.41
2018-12-12T20:39:18.974Z,95319.59
2018-12-12T20:41:47.857Z,95323.03
2018-12-12T20:44:16.614Z,95324.41
2018-12-12T20:46:45.480Z,95332.03
2018-12-12T20:49:14.481Z,95333.61
2018-12-12T20:51:43.151Z,95332.52
2018-12-12T20:54:11.657Z,95328.16
2018-12-12T20:56:39.988Z,95325.63
2018-12-12T20:59:08.329Z,95325.98
2018-12-12T21:01:36.774Z,95326.27
2018-12-12T21:04:04.988Z,95327.74
2018-12-12T21:06:33.846Z,95323.25
2018-12-12T21:09:02.369Z,95322.55
2018-12-12T21:11:30.939Z,95327.11
2018-12-12T21:13:59.322Z,95329.22
2018-12-12T21:16:28.028Z,95325.53
2018-12-12T21:18:56.427Z,95330.59
2018-12-12T21:21:25.104Z,95324.50
2018-12-12T21:23:53.452Z,95331.92
2018-12-12T21:26:22.515Z,95334.72
2018-12-12T21:28:50.831Z,95329.72
2018-12-12T21:31:19.230Z,95321.11
2018-12-12T21:33:47.691Z,95336.41
2018-12-12T21:36:16.039Z,95332.70
2018-12-12T21:38:44.401Z,95337.96
2018-12-12T21:41:12.914Z,95337.79
2018-12-12T21:43:41.328Z,95339.86
2018-12-12T21:46:09.770Z,95342.48
2018-12-12T21:48:45.214Z,95336.36
2018-12-12T21:51:26.073Z,95340.33
2018-12-12T21:53:54.821Z,95333.88
2018-12-12T21:56:23.383Z,95333.81
2018-12-12T21:58:51.731Z,95340.97
2018-12-12T22:01:20.047Z,95346.97
2018-12-12T22:03:48.438Z,95345.20
2018-12-12T22:06:16.827Z,95346.83
2018-12-12T22:08:45.521Z,95345.55
2018-12-12T22:11:14.218Z,95341.20
2018-12-12T22:13:42.584Z,95332.70
2018-12-12T22:16:11.133Z,95336.14
2018-12-12T22:18:39.468Z,95335.41
2018-12-12T22:21:07.715Z,95324.51
2018-12-12T22:23:36.025Z,95331.02
2018-12-12T22:26:05.052Z,95334.42
2018-12-12T22:28:33.468Z,95331.26
2018-12-12T22:31:01.965Z,95326.30
2018-12-12T22:33:30.383Z,95333.69
2018-12-12T22:35:59.212Z,95336.36
2018-12-12T22:38:27.889Z,95338.04
2018-12-12T22:40:56.534Z,95331.88
2018-12-12T22:43:25.153Z,95331.88
2018-12-12T22:45:53.862Z,95326.45
2018-12-12T22:48:23.063Z,95335.02
2018-12-12T22:50:51.396Z,95330.14
2018-12-12T22:53:19.820Z,95333.76
2018-12-12T22:55:48.253Z,95326.13
2018-12-12T22:58:16.861Z,95322.05
2018-12-12T23:00:50.661Z,95326.73
2018-12-12T23:03:18.920Z,95328.52
2018-12-12T23:05:47.390Z,95323.61
2018-12-12T23:08:16.155Z,95332.77
2018-12-12T23:10:44.928Z,95327.62
2018-12-12T23:13:13.715Z,95326.13
2018-12-12T23:15:42.022Z,95332.06
2018-12-12T23:18:10.917Z,95328.45
2018-12-12T23:20:39.638Z,95327.34
2018-12-12T23:23:08.155Z,95327.73
2018-12-12T23:25:36.676Z,95322.95
2018-12-12T23:28:05.214Z,95329.87
2018-12-12T23:30:33.652Z,95322.23
2018-12-12T23:33:02.091Z,95326.23
2018-12-12T23:35:30.435Z,95331.98
2018-12-12T23:37:59.166Z,95330.25
2018-12-12T23:40:27.715Z,95325.11
2018-12-12T23:42:56.302Z,95331.20
2018-12-12T23:45:25.237Z,95337.84
2018-12-12T23:47:53.870Z,95340.14
2018-12-12T23:50:22.494Z,95328.51
2018-12-12T23:52:51.278Z,95342.81
2018-12-12T23:55:19.740Z,95340.16
2018-12-12T23:57:48.672Z,95348.16
